Time;durP1;ratioP1;P1;durP2;ratioP2;P2;SDS_P1;SDS_P2;PMS_P1;PMS_P2;Temp;Humidity;BMP_temperature;BMP_pressure;BME280_temperature;BME280_humidity;BME280_pressure;Samples;Min_cycle;Max_cycle;Signal;HPM_P1;HPM_P2
2023/05/13 00:01:11;;;;;;;6.80;4.30;;;9.00;68.10;;;;;;5075551;28;20021;-77
2023/05/13 00:03:37;;;;;;;6.53;4.63;;;9.00;68.10;;;;;;5075462;28;20497;-76
2023/05/13 00:06:02;;;;;;;8.52;4.70;;;9.00;68.60;;;;;;5075401;28;20043;-77
2023/05/13 00:08:28;;;;;;;8.48;4.45;;;8.90;68.90;;;;;;5075306;28;20024;-77
2023/05/13 00:10:54;;;;;;;6.72;4.55;;;8.90;69.30;;;;;;5075379;28;20433;-76
2023/05/13 00:13:19;;;;;;;6.65;4.35;;;8.90;69.50;;;;;;5075124;28;20401;-76
2023/05/13 00:15:45;;;;;;;5.82;4.18;;;8.90;70.20;;;;;;5074026;28;20474;-76
2023/05/13 00:18:11;;;;;;;6.55;4.50;;;8.80;69.90;;;;;;5072467;28;20131;-76
2023/05/13 00:20:37;;;;;;;4.82;4.38;;;8.80;70.30;;;;;;5073069;28;20021;-76
2023/05/13 00:23:02;;;;;;;7.25;4.50;;;8.70;70.90;;;;;;5092437;28;20071;-77
2023/05/13 00:25:28;;;;;;;7.60;4.57;;;8.70;71.50;;;;;;5077638;28;20029;-78
2023/05/13 00:27:54;;;;;;;6.80;4.70;;;8.60;72.20;;;;;;5072580;28;20486;-77
2023/05/13 00:30:19;;;;;;;8.32;4.93;;;8.50;72.60;;;;;;5072814;28;20036;-78
2023/05/13 00:32:45;;;;;;;6.55;4.50;;;8.50;72.70;;;;;;5072872;28;20025;-76
2023/05/13 00:35:11;;;;;;;7.75;4.97;;;8.50;72.70;;;;;;5073915;28;20044;-76
2023/05/13 00:37:37;;;;;;;6.80;4.47;;;8.50;73.10;;;;;;5071735;28;20116;-77
2023/05/13 00:40:03;;;;;;;7.25;4.57;;;8.50;73.10;;;;;;5074771;28;20020;-77
2023/05/13 00:42:28;;;;;;;6.68;4.95;;;8.40;72.80;;;;;;5073477;28;20023;-76
2023/05/13 00:44:54;;;;;;;6.72;4.80;;;8.40;72.60;;;;;;5073548;28;20020;-76
2023/05/13 00:47:21;;;;;;;10.55;5.28;;;8.50;72.30;;;;;;5073210;28;20378;-77
2023/05/13 00:49:47;;;;;;;6.90;5.10;;;8.50;72.80;;;;;;5073190;28;20057;-76
2023/05/13 00:52:12;;;;;;;7.00;4.55;;;8.50;72.70;;;;;;5074409;28;20021;-78
2023/05/13 00:54:38;;;;;;;7.43;5.57;;;8.40;73.00;;;;;;5074506;28;20420;-76
2023/05/13 00:57:04;;;;;;;6.90;5.45;;;8.30;74.00;;;;;;5074399;28;20045;-77
2023/05/13 00:59:30;;;;;;;8.32;5.50;;;8.30;75.20;;;;;;5073260;28;20132;-76
2023/05/13 01:02:11;;;;;;;7.05;4.97;;;8.20;75.90;;;;;;5072486;28;20036;-76
2023/05/13 01:04:59;;;;;;;6.80;4.70;;;8.10;76.40;;;;;;5074206;28;20035;-78
2023/05/13 01:07:48;;;;;;;8.90;5.18;;;8.10;76.60;;;;;;5074276;28;20055;-77
2023/05/13 01:10:22;;;;;;;8.70;4.75;;;8.20;76.00;;;;;;5074223;28;20021;-77
2023/05/13 01:12:52;;;;;;;6.90;5.45;;;8.20;75.50;;;;;;5074420;28;20492;-76
2023/05/13 01:15:23;;;;;;;6.38;4.47;;;8.30;75.20;;;;;;5072923;28;20025;-77
2023/05/13 01:18:09;;;;;;;7.18;5.30;;;8.30;75.40;;;;;;5074021;28;20033;-77
2023/05/13 01:20:39;;;;;;;7.57;5.13;;;8.30;75.30;;;;;;5072701;28;20016;-77
2023/05/13 01:23:05;;;;;;;5.88;5.15;;;8.30;76.10;;;;;;5072617;28;20024;-76
2023/05/13 01:25:31;;;;;;;6.07;5.00;;;8.30;76.10;;;;;;5073557;28;20024;-76
2023/05/13 01:27:56;;;;;;;7.70;5.25;;;8.20;76.30;;;;;;5073700;28;20020;-77
2023/05/13 01:30:22;;;;;;;6.53;5.03;;;8.20;76.30;;;;;;5073887;28;20016;-78
2023/05/13 01:32:49;;;;;;;6.38;4.55;;;8.20;76.60;;;;;;5073983;28;20056;-77
2023/05/13 01:35:15;;;;;;;6.95;4.85;;;8.10;77.20;;;;;;5073519;28;20037;-77
2023/05/13 01:37:42;;;;;;;8.32;5.05;;;8.10;77.50;;;;;;5073545;28;20078;-77
2023/05/13 01:40:09;;;;;;;8.77;4.97;;;8.10;77.80;;;;;;5072448;28;20104;-77
2023/05/13 01:42:35;;;;;;;8.63;5.65;;;8.10;78.10;;;;;;5072252;28;20017;-77
2023/05/13 01:45:01;;;;;;;6.57;5.43;;;8.00;78.50;;;;;;5073773;28;20020;-76
2023/05/13 01:47:27;;;;;;;7.47;5.60;;;8.00;78.90;;;;;;5073575;28;20017;-77
2023/05/13 01:49:52;;;;;;;9.52;5.45;;;7.90;79.00;;;;;;5073552;28;20425;-77
2023/05/13 01:52:18;;;;;;;9.98;6.13;;;7.90;78.80;;;;;;5072122;28;20119;-77
2023/05/13 01:54:43;;;;;;;6.88;5.68;;;7.90;79.50;;;;;;5073604;28;20021;-76
2023/05/13 01:57:09;;;;;;;7.78;5.53;;;7.80;79.90;;;;;;5073270;28;20118;-76
2023/05/13 01:59:35;;;;;;;10.80;5.90;;;7.80;80.50;;;;;;5073442;28;20448;-77
2023/05/13 02:02:00;;;;;;;9.15;5.47;;;7.80;81.20;;;;;;5073244;28;20012;-76
2023/05/13 02:04:26;;;;;;;8.80;6.57;;;7.70;81.20;;;;;;5073555;28;20028;-77
2023/05/13 02:06:52;;;;;;;8.35;6.35;;;7.70;81.20;;;;;;5073464;28;20032;-76
2023/05/13 02:09:17;;;;;;;8.35;5.70;;;7.70;81.50;;;;;;5073256;28;20028;-76
2023/05/13 02:11:44;;;;;;;8.30;5.72;;;7.70;81.80;;;;;;5073304;28;20021;-76
2023/05/13 02:14:10;;;;;;;10.55;6.25;;;7.60;83.00;;;;;;5071932;28;20032;-76
2023/05/13 02:16:36;;;;;;;7.97;5.78;;;7.60;84.00;;;;;;5071850;28;20028;-76
2023/05/13 02:19:01;;;;;;;8.23;6.03;;;7.50;84.30;;;;;;5073256;28;20020;-76
2023/05/13 02:21:27;;;;;;;8.68;6.07;;;7.40;85.80;;;;;;5073149;28;20143;-77
2023/05/13 02:23:53;;;;;;;9.27;6.03;;;7.40;85.70;;;;;;5071982;28;20024;-76
2023/05/13 02:26:19;;;;;;;9.68;6.35;;;7.40;86.40;;;;;;5072951;28;20025;-76
2023/05/13 02:28:44;;;;;;;9.85;6.18;;;7.30;86.40;;;;;;5073052;28;20107;-77
2023/05/13 02:31:10;;;;;;;11.32;7.20;;;7.30;87.80;;;;;;5073026;28;20111;-77
2023/05/13 02:33:35;;;;;;;8.70;6.45;;;7.30;88.70;;;;;;5071513;28;20020;-77
2023/05/13 02:36:01;;;;;;;12.02;6.60;;;7.20;89.50;;;;;;5071782;28;20454;-77
2023/05/13 02:38:26;;;;;;;11.50;6.38;;;7.20;89.80;;;;;;5073902;28;20036;-77
2023/05/13 02:40:52;;;;;;;10.10;6.95;;;7.20;89.50;;;;;;5076927;28;20059;-77
2023/05/13 02:43:18;;;;;;;9.07;6.50;;;7.20;90.60;;;;;;5076911;28;20021;-77
2023/05/13 02:45:44;;;;;;;8.57;6.93;;;7.20;90.60;;;;;;5077142;28;20020;-76
2023/05/13 02:48:10;;;;;;;10.90;7.25;;;7.20;90.60;;;;;;5076872;28;20103;-77
2023/05/13 02:50:36;;;;;;;10.95;6.93;;;7.20;90.80;;;;;;5076885;28;20016;-77
2023/05/13 02:53:01;;;;;;;11.90;7.65;;;7.20;91.60;;;;;;5076785;28;20024;-76
2023/05/13 02:55:27;;;;;;;10.93;7.88;;;7.20;92.40;;;;;;5077000;28;20033;-76
2023/05/13 02:57:52;;;;;;;12.70;7.90;;;7.30;93.40;;;;;;5075348;28;20028;-77
2023/05/13 03:00:18;;;;;;;12.60;7.53;;;7.30;92.70;;;;;;5076813;28;20028;-76
2023/05/13 03:02:44;;;;;;;10.15;7.40;;;7.40;93.20;;;;;;5075365;28;20017;-76
2023/05/13 03:05:09;;;;;;;11.13;7.85;;;7.40;94.10;;;;;;5076649;28;20106;-78
2023/05/13 03:07:35;;;;;;;9.13;6.85;;;7.50;93.40;;;;;;5076495;28;20027;-76
2023/05/13 03:10:01;;;;;;;10.75;6.85;;;7.50;93.10;;;;;;5076562;28;20020;-76
2023/05/13 03:12:26;;;;;;;10.02;7.00;;;7.50;93.00;;;;;;5076433;28;20027;-77
2023/05/13 03:14:52;;;;;;;8.35;6.68;;;7.50;92.30;;;;;;5076506;28;20099;-77
2023/05/13 03:17:17;;;;;;;13.43;7.20;;;7.60;93.90;;;;;;5076177;28;20032;-76
2023/05/13 03:19:43;;;;;;;10.80;7.22;;;7.60;93.20;;;;;;5075010;28;20027;-77
2023/05/13 03:22:09;;;;;;;9.98;7.32;;;7.60;93.40;;;;;;5076174;28;20024;-76
2023/05/13 03:24:34;;;;;;;10.32;8.15;;;7.70;94.10;;;;;;5075000;28;20478;-76
2023/05/13 03:27:00;;;;;;;11.70;7.07;;;7.70;94.50;;;;;;5074872;28;20546;-77
2023/05/13 03:29:26;;;;;;;11.07;6.93;;;7.70;94.40;;;;;;5075249;28;20025;-76
2023/05/13 03:31:52;;;;;;;9.95;6.72;;;7.70;93.90;;;;;;5074920;28;20013;-77
2023/05/13 03:34:18;;;;;;;12.23;7.55;;;7.80;94.40;;;;;;5077034;28;20058;-78
2023/05/13 03:36:43;;;;;;;9.85;6.43;;;7.80;94.50;;;;;;5095328;28;20050;-77
2023/05/13 03:39:09;;;;;;;7.90;7.00;;;7.80;93.20;;;;;;5073243;28;20024;-77
2023/05/13 03:41:35;;;;;;;8.68;7.13;;;7.90;92.90;;;;;;5075277;28;20016;-76
2023/05/13 03:44:01;;;;;;;9.95;7.47;;;7.90;94.20;;;;;;5074624;28;20023;-77
2023/05/13 03:46:27;;;;;;;9.38;7.18;;;8.00;94.90;;;;;;5073823;28;20478;-76
2023/05/13 03:48:54;;;;;;;9.00;7.05;;;8.10;94.50;;;;;;5073709;28;20040;-77
2023/05/13 03:51:20;;;;;;;10.00;7.43;;;8.20;93.70;;;;;;5074704;28;20027;-78
2023/05/13 03:53:46;;;;;;;9.70;7.25;;;8.30;93.00;;;;;;5075601;28;20110;-77
2023/05/13 03:56:12;;;;;;;12.50;7.95;;;8.40;93.10;;;;;;5075776;28;20418;-78
2023/05/13 03:58:38;;;;;;;9.38;6.93;;;8.50;92.10;;;;;;5075469;28;20039;-77
2023/05/13 04:01:03;;;;;;;12.20;8.38;;;8.60;91.90;;;;;;5075621;28;20108;-76
2023/05/13 04:03:30;;;;;;;11.43;7.53;;;8.70;90.80;;;;;;5054554;28;20039;-77
2023/05/13 04:05:55;;;;;;;10.73;8.25;;;8.70;90.30;;;;;;5054547;28;20030;-77
2023/05/13 04:08:21;;;;;;;9.32;6.97;;;8.70;91.70;;;;;;5055504;28;20032;-76
2023/05/13 04:10:47;;;;;;;8.68;7.25;;;8.70;91.10;;;;;;5055328;28;20025;-77
2023/05/13 04:13:12;;;;;;;9.98;7.40;;;8.70;91.80;;;;;;5054030;28;20485;-77
2023/05/13 04:15:38;;;;;;;11.55;7.93;;;8.80;90.90;;;;;;5054001;28;20017;-77
2023/05/13 04:18:03;;;;;;;9.70;7.15;;;8.80;92.20;;;;;;5055140;28;20082;-78
2023/05/13 04:20:29;;;;;;;11.73;7.65;;;8.80;91.40;;;;;;5055235;28;20040;-76
2023/05/13 04:22:55;;;;;;;10.77;7.15;;;8.80;91.60;;;;;;5055170;28;20021;-77
2023/05/13 04:25:21;;;;;;;10.85;7.97;;;8.70;92.20;;;;;;5055055;28;20505;-77
2023/05/13 04:27:46;;;;;;;9.55;7.43;;;8.80;92.90;;;;;;5054894;28;20360;-76
2023/05/13 04:30:12;;;;;;;11.10;7.22;;;8.80;93.10;;;;;;5053768;28;20501;-77
2023/05/13 04:32:38;;;;;;;11.75;7.90;;;8.80;93.40;;;;;;5054761;28;20032;-78
2023/05/13 04:35:05;;;;;;;10.93;7.70;;;8.90;94.10;;;;;;5071816;28;20394;-76
2023/05/13 04:37:31;;;;;;;18.38;8.07;;;8.90;94.10;;;;;;5074653;28;20036;-78
2023/05/13 04:39:56;;;;;;;10.50;8.63;;;8.90;95.20;;;;;;5074749;28;20020;-77
2023/05/13 04:42:22;;;;;;;12.02;8.45;;;9.00;94.80;;;;;;5073442;28;20531;-77
2023/05/13 04:44:48;;;;;;;11.45;7.18;;;9.10;94.20;;;;;;5074591;28;20024;-78
2023/05/13 04:47:13;;;;;;;9.20;7.35;;;9.20;94.00;;;;;;5073038;28;20013;-76
2023/05/13 04:49:39;;;;;;;9.05;7.38;;;9.30;92.20;;;;;;5074430;28;20401;-77
2023/05/13 04:52:05;;;;;;;9.13;6.47;;;9.60;91.60;;;;;;5072961;28;20048;-77
2023/05/13 04:54:30;;;;;;;10.50;7.75;;;9.80;90.30;;;;;;5071547;28;20152;-77
2023/05/13 04:56:56;;;;;;;9.98;7.63;;;10.10;89.70;;;;;;5071355;28;20103;-77
2023/05/13 04:59:22;;;;;;;12.30;8.18;;;10.40;87.10;;;;;;5071519;28;20438;-78
2023/05/13 05:01:48;;;;;;;9.57;6.65;;;10.60;86.30;;;;;;5070658;28;20226;-77
2023/05/13 05:04:13;;;;;;;10.57;6.30;;;10.80;84.20;;;;;;5069028;28;20021;-78
2023/05/13 05:06:39;;;;;;;8.40;6.15;;;11.00;82.60;;;;;;5072395;28;20029;-79
2023/05/13 05:09:04;;;;;;;9.30;5.68;;;11.30;78.90;;;;;;5070506;28;20024;-78
2023/05/13 05:11:30;;;;;;;5.47;4.97;;;11.50;75.20;;;;;;5070702;28;20135;-78
2023/05/13 05:13:55;;;;;;;6.63;4.63;;;11.70;74.50;;;;;;5072199;28;20020;-78
2023/05/13 05:16:22;;;;;;;5.00;4.22;;;12.00;73.70;;;;;;5070885;28;20020;-79
2023/05/13 05:18:48;;;;;;;5.70;4.90;;;12.10;70.50;;;;;;5070791;28;20029;-79
2023/05/13 05:21:13;;;;;;;6.97;4.72;;;12.20;69.90;;;;;;5070936;28;20016;-79
2023/05/13 05:23:39;;;;;;;8.15;4.40;;;12.40;69.70;;;;;;5070862;28;20048;-78
2023/05/13 05:26:04;;;;;;;3.50;3.20;;;12.50;66.80;;;;;;5073034;28;20386;-78
2023/05/13 05:28:30;;;;;;;3.92;3.53;;;12.60;66.00;;;;;;5073408;28;20107;-79
2023/05/13 05:30:56;;;;;;;5.85;4.45;;;12.60;65.00;;;;;;5072146;28;20020;-79
2023/05/13 05:33:23;;;;;;;5.90;3.60;;;12.60;64.40;;;;;;5070861;28;20107;-78
2023/05/13 05:35:48;;;;;;;6.25;3.63;;;12.60;64.90;;;;;;5072215;28;20020;-78
2023/05/13 05:38:14;;;;;;;6.93;3.72;;;12.60;64.60;;;;;;5071891;28;20509;-78
2023/05/13 05:40:43;;;;;;;4.38;3.25;;;12.70;65.00;;;;;;5072057;28;20020;-78
2023/05/13 05:43:12;;;;;;;5.07;3.65;;;12.70;64.30;;;;;;5071737;28;20017;-79
2023/05/13 05:45:38;;;;;;;5.53;3.97;;;12.70;63.40;;;;;;5071853;28;20024;-80
2023/05/13 05:48:05;;;;;;;8.95;3.70;;;12.80;63.80;;;;;;5070353;28;20489;-80
2023/05/13 05:50:31;;;;;;;7.32;3.67;;;13.00;64.30;;;;;;5070708;28;20020;-79
2023/05/13 05:52:58;;;;;;;6.50;3.97;;;13.20;64.20;;;;;;5071367;28;20016;-79
2023/05/13 05:55:24;;;;;;;6.35;4.20;;;13.30;64.30;;;;;;5070100;28;20024;-79
2023/05/13 05:57:50;;;;;;;5.65;3.60;;;13.30;62.90;;;;;;5069081;28;20102;-78
2023/05/13 06:00:16;;;;;;;6.22;4.00;;;13.40;63.70;;;;;;5071544;28;20020;-79
2023/05/13 06:02:42;;;;;;;8.18;4.57;;;13.60;64.60;;;;;;5071614;28;20055;-79
2023/05/13 06:05:07;;;;;;;6.43;4.72;;;13.70;65.10;;;;;;5070514;28;20052;-79
2023/05/13 06:07:33;;;;;;;5.63;4.25;;;13.60;64.70;;;;;;5072153;28;20086;-78
2023/05/13 06:09:59;;;;;;;8.10;5.22;;;13.70;64.70;;;;;;5072175;28;20020;-78
2023/05/13 06:12:24;;;;;;;7.07;5.15;;;13.60;64.10;;;;;;5073099;28;20107;-79
2023/05/13 06:14:50;;;;;;;7.22;4.65;;;13.60;64.30;;;;;;5074063;28;20397;-79
2023/05/13 06:17:16;;;;;;;8.75;5.80;;;13.60;65.30;;;;;;5072992;28;20037;-79
2023/05/13 06:19:42;;;;;;;7.03;4.75;;;13.50;64.50;;;;;;5071904;28;20029;-78
2023/05/13 06:22:08;;;;;;;5.22;4.15;;;13.60;64.70;;;;;;5088941;28;20470;-79
2023/05/13 06:24:34;;;;;;;5.68;3.97;;;13.60;64.10;;;;;;5091933;28;20020;-79
2023/05/13 06:27:00;;;;;;;5.47;4.90;;;13.70;63.50;;;;;;5091916;28;20109;-79
2023/05/13 06:29:26;;;;;;;4.90;4.18;;;13.80;63.10;;;;;;5084259;28;20427;-79
2023/05/13 06:31:52;;;;;;;6.10;4.38;;;13.90;63.30;;;;;;5067585;28;20108;-79
2023/05/13 06:34:17;;;;;;;4.78;4.05;;;14.00;62.80;;;;;;5069206;28;20123;-79
2023/05/13 06:36:43;;;;;;;6.15;4.32;;;14.10;62.00;;;;;;5076630;28;20032;-79
2023/05/13 06:39:12;;;;;;;4.95;3.92;;;14.20;61.10;;;;;;5052565;28;20568;-79
2023/05/13 06:41:38;;;;;;;4.38;3.97;;;14.30;61.00;;;;;;5059986;28;20021;-79
2023/05/13 06:44:05;;;;;;;4.70;3.95;;;14.30;59.80;;;;;;5049446;28;20025;-79
2023/05/13 06:46:31;;;;;;;4.05;3.25;;;14.50;60.80;;;;;;5051561;28;20104;-79
2023/05/13 06:48:57;;;;;;;6.30;4.05;;;14.60;59.70;;;;;;5067876;28;20057;-79
2023/05/13 06:51:24;;;;;;;5.70;3.85;;;14.60;58.90;;;;;;5068407;28;20043;-79
2023/05/13 06:53:50;;;;;;;5.82;3.58;;;14.80;59.10;;;;;;5071650;28;20450;-79
2023/05/13 06:56:15;;;;;;;4.60;3.63;;;14.80;58.70;;;;;;5069848;28;20025;-79
2023/05/13 06:58:41;;;;;;;4.28;3.85;;;14.80;58.40;;;;;;5071291;28;20033;-79
2023/05/13 07:01:06;;;;;;;8.23;3.40;;;14.80;58.10;;;;;;5071847;28;20055;-79
2023/05/13 07:03:32;;;;;;;5.22;3.50;;;14.60;57.60;;;;;;5075478;28;20031;-79
2023/05/13 07:05:57;;;;;;;8.73;4.00;;;14.50;58.30;;;;;;5072490;28;20091;-79
2023/05/13 07:08:23;;;;;;;6.57;3.80;;;14.70;58.40;;;;;;5071226;28;20055;-79
2023/05/13 07:10:49;;;;;;;6.07;4.47;;;14.50;57.90;;;;;;5072812;28;20035;-79
2023/05/13 07:13:15;;;;;;;5.18;4.20;;;14.70;57.90;;;;;;5088485;28;20058;-78
2023/05/13 07:15:40;;;;;;;7.18;4.78;;;14.80;58.40;;;;;;5072285;28;20048;-78
2023/05/13 07:18:06;;;;;;;5.80;3.55;;;15.00;58.40;;;;;;5072232;28;20390;-79
2023/05/13 07:20:32;;;;;;;4.68;3.03;;;15.10;56.50;;;;;;5071655;28;20020;-79
2023/05/13 07:22:57;;;;;;;6.00;3.45;;;15.00;56.00;;;;;;5071851;28;20016;-79
2023/05/13 07:25:23;;;;;;;6.10;4.43;;;15.20;56.40;;;;;;5074476;28;20055;-78
2023/05/13 07:27:48;;;;;;;5.07;3.30;;;15.10;56.60;;;;;;5075026;28;20382;-80
2023/05/13 07:30:14;;;;;;;4.53;2.97;;;15.30;56.70;;;;;;5074827;28;20017;-79
2023/05/13 07:32:40;;;;;;;3.75;3.20;;;15.30;55.20;;;;;;5074809;28;20036;-79
2023/05/13 07:35:06;;;;;;;4.45;2.92;;;15.40;55.60;;;;;;5075933;28;20053;-79
2023/05/13 07:37:32;;;;;;;4.72;2.90;;;15.40;55.00;;;;;;5075849;28;20028;-79
2023/05/13 07:39:57;;;;;;;3.20;2.90;;;15.50;54.80;;;;;;5069799;28;20078;-79
2023/05/13 07:42:24;;;;;;;3.35;2.88;;;15.60;54.80;;;;;;5073801;28;20064;-79
2023/05/13 07:44:49;;;;;;;5.45;2.92;;;15.50;54.20;;;;;;5071562;28;20030;-79
2023/05/13 07:47:15;;;;;;;4.65;3.42;;;15.60;54.10;;;;;;5075569;28;20091;-79
2023/05/13 07:49:40;;;;;;;5.03;3.55;;;15.60;55.40;;;;;;5074649;28;20474;-79
2023/05/13 07:52:06;;;;;;;3.50;3.20;;;15.60;54.40;;;;;;5074265;28;20020;-79
2023/05/13 07:54:32;;;;;;;6.03;3.72;;;15.70;54.70;;;;;;5071893;28;20521;-79
2023/05/13 07:56:57;;;;;;;3.92;3.10;;;15.60;54.30;;;;;;5070129;28;20060;-80
2023/05/13 07:59:23;;;;;;;4.40;3.13;;;15.50;53.70;;;;;;5070330;28;20050;-80
2023/05/13 08:01:49;;;;;;;6.35;3.00;;;15.60;53.90;;;;;;5073659;28;20106;-80
2023/05/13 08:04:15;;;;;;;5.90;3.30;;;15.80;54.60;;;;;;5073815;28;20032;-80
2023/05/13 08:06:40;;;;;;;3.67;2.90;;;15.70;53.80;;;;;;5074850;28;20021;-79
2023/05/13 08:09:08;;;;;;;5.57;3.13;;;15.70;54.30;;;;;;5073601;28;20389;-79
2023/05/13 08:11:34;;;;;;;4.85;2.97;;;15.70;53.50;;;;;;5075895;28;20642;-80
2023/05/13 08:13:59;;;;;;;3.85;3.08;;;15.70;53.30;;;;;;5073428;28;20051;-79
2023/05/13 08:16:25;;;;;;;4.15;3.03;;;15.50;53.10;;;;;;5073294;28;20028;-80
2023/05/13 08:18:51;;;;;;;4.03;2.78;;;15.20;53.80;;;;;;5074358;28;20123;-81
2023/05/13 08:21:16;;;;;;;6.57;3.15;;;15.40;54.50;;;;;;5074990;28;20021;-80
2023/05/13 08:23:42;;;;;;;3.70;3.28;;;15.80;55.10;;;;;;5074756;28;20139;-80
2023/05/13 08:26:07;;;;;;;3.53;3.20;;;16.00;54.60;;;;;;5074079;28;20020;-80
2023/05/13 08:28:33;;;;;;;3.55;2.95;;;15.90;53.90;;;;;;5073248;28;20017;-80
2023/05/13 08:31:01;;;;;;;5.43;2.72;;;15.90;53.90;;;;;;5074091;28;20526;-80
2023/05/13 08:33:31;;;;;;;5.30;3.03;;;16.00;54.00;;;;;;5072741;28;20428;-79
2023/05/13 08:35:58;;;;;;;4.15;2.60;;;15.70;53.10;;;;;;5064873;28;20047;-80
2023/05/13 08:38:24;;;;;;;4.18;3.22;;;15.60;53.10;;;;;;5072574;28;20037;-80
2023/05/13 08:40:50;;;;;;;4.32;2.80;;;15.70;54.30;;;;;;5073261;28;20555;-80
2023/05/13 08:43:16;;;;;;;4.50;2.97;;;15.90;54.80;;;;;;5074354;28;20025;-79
2023/05/13 08:45:45;;;;;;;3.90;3.05;;;16.00;54.10;;;;;;5073100;28;20063;-79
2023/05/13 08:48:15;;;;;;;4.13;2.55;;;16.10;54.10;;;;;;5073033;28;20017;-80
2023/05/13 08:50:41;;;;;;;4.18;2.50;;;16.30;52.40;;;;;;5071643;28;20032;-79
2023/05/13 08:53:08;;;;;;;4.18;2.53;;;16.40;51.00;;;;;;5073806;28;20016;-79
2023/05/13 08:55:34;;;;;;;5.38;3.35;;;16.40;50.60;;;;;;5074155;28;20032;-80
2023/05/13 08:58:00;;;;;;;4.40;2.97;;;16.60;50.60;;;;;;5072795;28;20036;-79
2023/05/13 09:00:25;;;;;;;3.17;2.95;;;16.70;49.70;;;;;;5072689;28;20070;-79
2023/05/13 09:02:51;;;;;;;4.15;3.20;;;16.80;50.50;;;;;;5073260;28;20055;-79
2023/05/13 09:05:17;;;;;;;5.50;2.80;;;16.80;50.80;;;;;;5070656;28;20466;-79
2023/05/13 09:07:42;;;;;;;5.57;2.92;;;16.80;49.40;;;;;;5073378;28;20033;-79
2023/05/13 09:10:09;;;;;;;2.90;2.60;;;16.70;49.20;;;;;;5072639;28;20029;-80
2023/05/13 09:12:41;;;;;;;4.60;2.60;;;16.70;49.00;;;;;;5072617;28;20017;-79
2023/05/13 09:15:12;;;;;;;3.75;2.83;;;16.70;49.00;;;;;;5073862;28;20021;-79
2023/05/13 09:17:41;;;;;;;4.65;3.05;;;16.90;49.80;;;;;;5073791;28;20040;-79
2023/05/13 09:20:12;;;;;;;3.58;2.88;;;17.00;48.60;;;;;;5072923;28;20016;-80
2023/05/13 09:22:45;;;;;;;3.90;2.90;;;16.70;48.90;;;;;;5070356;28;20020;-79
2023/05/13 09:25:12;;;;;;;4.32;3.10;;;17.00;49.30;;;;;;5072167;28;20028;-79
2023/05/13 09:27:40;;;;;;;4.28;2.97;;;17.10;49.20;;;;;;5070974;28;20067;-80
2023/05/13 09:30:07;;;;;;;4.20;2.50;;;17.20;48.00;;;;;;5071003;28;20551;-80
2023/05/13 09:32:33;;;;;;;4.15;1.98;;;17.20;47.70;;;;;;5070598;28;20109;-79
2023/05/13 09:35:17;;;;;;;3.20;2.35;;;17.00;47.40;;;;;;5072609;28;20094;-78
2023/05/13 09:37:48;;;;;;;3.42;2.00;;;17.00;46.40;;;;;;5069983;28;20394;-78
2023/05/13 09:40:16;;;;;;;2.22;2.03;;;16.90;45.60;;;;;;5071547;28;20028;-78
2023/05/13 09:42:43;;;;;;;4.50;2.50;;;17.00;45.90;;;;;;5091185;28;20106;-78
2023/05/13 09:45:11;;;;;;;4.28;2.03;;;17.20;46.60;;;;;;5088800;28;20592;-78
2023/05/13 09:47:37;;;;;;;3.83;2.22;;;17.40;46.90;;;;;;5089682;28;20470;-78
2023/05/13 09:50:03;;;;;;;3.47;1.98;;;17.40;46.30;;;;;;5092288;28;20588;-78
2023/05/13 09:52:30;;;;;;;5.07;2.30;;;17.20;45.80;;;;;;5092492;28;20020;-78
2023/05/13 09:54:58;;;;;;;3.28;2.72;;;17.00;46.20;;;;;;5093163;28;20044;-78
2023/05/13 09:57:27;;;;;;;11.18;2.70;;;17.30;47.10;;;;;;5092788;28;20401;-78
2023/05/13 09:59:57;;;;;;;4.10;2.60;;;17.40;47.60;;;;;;5090711;28;20024;-79
2023/05/13 10:02:23;;;;;;;4.43;2.40;;;17.30;46.80;;;;;;5079796;28;20016;-79
2023/05/13 10:04:50;;;;;;;4.10;2.30;;;17.10;46.10;;;;;;5068365;28;20031;-79
2023/05/13 10:07:23;;;;;;;4.88;3.10;;;17.30;47.20;;;;;;5069185;28;20024;-78
2023/05/13 10:09:50;;;;;;;2.70;2.50;;;17.40;46.10;;;;;;5070539;28;20017;-78
2023/05/13 10:12:18;;;;;;;3.50;2.83;;;17.50;46.10;;;;;;5071036;28;20016;-78
2023/05/13 10:14:44;;;;;;;4.30;2.67;;;17.50;45.90;;;;;;5072480;28;20024;-78
2023/05/13 10:17:11;;;;;;;6.70;3.17;;;17.70;46.20;;;;;;5071645;28;20103;-78
2023/05/13 10:19:37;;;;;;;3.85;3.50;;;17.70;45.90;;;;;;5072018;28;20024;-77
2023/05/13 10:22:04;;;;;;;4.78;2.78;;;17.70;46.10;;;;;;5071780;28;20024;-78
2023/05/13 10:24:30;;;;;;;3.50;2.78;;;17.70;45.90;;;;;;5071984;28;20029;-77
2023/05/13 10:26:57;;;;;;;3.05;2.65;;;17.60;44.80;;;;;;5072970;28;20036;-78
2023/05/13 10:29:25;;;;;;;6.78;3.05;;;17.70;44.80;;;;;;5070799;28;20534;-77
2023/05/13 10:31:51;;;;;;;3.33;2.85;;;17.90;46.00;;;;;;5072981;28;20519;-78
2023/05/13 10:34:17;;;;;;;4.38;3.13;;;17.90;45.60;;;;;;5072845;28;20455;-79
2023/05/13 10:37:00;;;;;;;4.90;3.08;;;17.60;45.00;;;;;;5072840;28;20050;-77
2023/05/13 10:40:00;;;;;;;7.85;3.13;;;17.90;45.90;;;;;;5073166;28;20036;-77
2023/05/13 10:42:42;;;;;;;6.05;3.20;;;18.20;46.00;;;;;;5072963;28;20032;-78
2023/05/13 10:45:09;;;;;;;5.80;3.05;;;18.50;45.60;;;;;;5071726;28;20020;-78
2023/05/13 10:47:35;;;;;;;5.30;3.80;;;18.70;45.10;;;;;;5072890;28;20082;-78
2023/05/13 10:50:25;;;;;;;7.00;2.67;;;18.80;44.20;;;;;;5071784;28;20028;-78
2023/05/13 10:52:55;;;;;;;4.80;2.85;;;18.90;44.90;;;;;;5072347;28;20041;-79
2023/05/13 10:55:21;;;;;;;5.55;2.75;;;18.80;43.50;;;;;;5073007;28;20136;-79
2023/05/13 10:58:12;;;;;;;4.57;3.20;;;18.60;43.00;;;;;;5072817;28;20107;-77
2023/05/13 11:00:40;;;;;;;7.57;3.10;;;18.50;43.50;;;;;;5076951;28;20099;-79
2023/05/13 11:03:12;;;;;;;3.88;2.78;;;18.40;43.50;;;;;;5076750;28;20044;-78
2023/05/13 11:05:48;;;;;;;;;;;18.10;43.30;;;;;;5077197;28;20017;-79
2023/05/13 11:08:44;;;;;;;3.95;2.83;;;18.10;43.40;;;;;;5075358;28;19904;-78
2023/05/13 11:11:36;;;;;;;2.53;2.33;;;18.40;43.50;;;;;;5076204;28;20433;-79
2023/05/13 11:14:02;;;;;;;3.00;2.67;;;18.40;42.70;;;;;;5074137;28;20028;-78
2023/05/13 11:16:28;;;;;;;6.53;3.17;;;18.40;43.70;;;;;;5075265;28;20029;-77
2023/05/13 11:18:53;;;;;;;10.02;2.75;;;18.40;42.80;;;;;;5076319;28;20043;-78
2023/05/13 11:21:34;;;;;;;3.45;2.72;;;18.40;43.20;;;;;;5076641;28;20039;-77
2023/05/13 11:24:05;;;;;;;3.08;2.78;;;18.40;43.10;;;;;;5076538;28;20051;-78
2023/05/13 11:26:52;;;;;;;3.47;2.88;;;18.50;44.30;;;;;;5076346;28;20096;-78
2023/05/13 11:29:37;;;;;;;5.97;2.50;;;18.80;43.90;;;;;;5074954;28;20493;-77
2023/05/13 11:32:04;;;;;;;6.03;2.60;;;18.70;42.60;;;;;;5076138;28;20047;-78
2023/05/13 11:34:31;;;;;;;2.55;2.35;;;18.80;42.50;;;;;;5074896;28;20048;-77
2023/05/13 11:37:06;;;;;;;3.05;2.70;;;18.80;42.50;;;;;;5076111;28;20037;-77
2023/05/13 11:39:32;;;;;;;6.78;2.38;;;19.00;42.30;;;;;;5076121;28;20017;-78
2023/05/13 11:42:00;;;;;;;6.10;3.03;;;18.90;42.20;;;;;;5076030;28;20063;-78
2023/05/13 11:44:27;;;;;;;4.65;3.00;;;18.70;42.50;;;;;;5076167;28;20040;-79
2023/05/13 11:46:53;;;;;;;5.03;2.67;;;18.50;42.20;;;;;;5075944;28;20035;-78
2023/05/13 11:49:39;;;;;;;16.48;3.60;;;18.40;42.40;;;;;;5074624;28;20471;-77
2023/05/13 11:52:15;;;;;;;4.72;3.13;;;18.30;42.20;;;;;;5075918;28;20021;-78
2023/05/13 11:54:52;;;;;;;5.03;2.92;;;18.50;43.80;;;;;;5075784;28;20020;-78
2023/05/13 11:57:26;;;;;;;4.18;2.45;;;18.50;43.70;;;;;;5074456;28;20032;-78
2023/05/13 11:59:57;;;;;;;3.10;2.80;;;18.50;43.30;;;;;;5075742;28;20461;-78
2023/05/13 12:02:30;;;;;;;2.58;2.38;;;18.50;43.80;;;;;;5075664;28;20032;-78
2023/05/13 12:05:07;;;;;;;4.38;2.85;;;18.40;43.00;;;;;;5075789;28;20095;-78
2023/05/13 12:07:34;;;;;;;4.05;2.38;;;18.20;42.80;;;;;;5074336;28;20025;-78
2023/05/13 12:10:02;;;;;;;4.40;2.85;;;18.10;42.90;;;;;;5075469;28;20025;-78
2023/05/13 12:12:29;;;;;;;3.13;2.38;;;18.20;43.40;;;;;;5074285;28;20466;-78
2023/05/13 12:14:58;;;;;;;6.32;2.65;;;18.20;44.20;;;;;;5074338;28;20508;-77
2023/05/13 12:17:24;;;;;;;3.80;2.95;;;18.10;43.40;;;;;;5074090;28;20028;-78
2023/05/13 12:20:13;;;;;;;2.92;1.98;;;17.90;42.70;;;;;;5074093;28;20118;-78
2023/05/13 12:22:42;;;;;;;5.50;3.00;;;17.90;43.10;;;;;;5075485;28;20025;-78
2023/05/13 12:25:39;;;;;;;6.78;2.97;;;17.80;43.30;;;;;;5075382;28;20017;-77
2023/05/13 12:28:12;;;;;;;7.97;2.97;;;17.80;43.50;;;;;;5075256;28;20537;-78
2023/05/13 12:30:39;;;;;;;3.10;2.78;;;17.90;43.90;;;;;;5073891;28;20031;-77
2023/05/13 12:33:14;;;;;;;2.63;2.00;;;17.80;43.20;;;;;;5073780;28;20020;-77
2023/05/13 12:35:41;;;;;;;7.68;2.85;;;17.80;43.40;;;;;;5074479;28;20083;-77
2023/05/13 12:38:06;;;;;;;6.57;2.30;;;17.90;43.80;;;;;;5073653;28;20486;-78
2023/05/13 12:40:32;;;;;;;2.53;1.90;;;17.70;43.00;;;;;;5074953;28;20077;-78
2023/05/13 12:43:02;;;;;;;2.15;1.90;;;17.60;42.50;;;;;;5073654;28;20017;-78
2023/05/13 12:45:32;;;;;;;2.85;1.85;;;17.60;42.60;;;;;;5073658;28;20017;-78
2023/05/13 12:47:58;;;;;;;3.08;2.40;;;17.70;43.70;;;;;;5074790;28;20533;-78
2023/05/13 12:50:25;;;;;;;7.10;2.40;;;17.70;43.30;;;;;;5073536;28;20032;-78
2023/05/13 12:52:51;;;;;;;4.20;2.05;;;17.80;43.30;;;;;;5074629;28;20030;-78